This is the latest recevied weather packets stored in our database for station/object IV3CGM-13. If no packets are shown the sender has not sent any weather packets the latest 10 day(s).
| Time | Temp. | Humidity | Pressure | Rain* | Wind** | Luminosity | Snow |
|---|---|---|---|---|---|---|---|
| 1777338510 | 13.89° C | 74% | 1016.1 hPa | 0 mm | - | 0 W/m² | - |
| 1777337822 | 13.89° C | 74% | 1016.2 hPa | 0 mm | - | 0 W/m² | - |
| 1777337086 | 13.89° C | 74% | 1016.2 hPa | 0 mm | - | 0 W/m² | - |
| 1777336385 | 13.89° C | 75% | 1016.3 hPa | 0 mm | - | 0 W/m² | - |
| 1777335697 | 13.33° C | 81% | 1016.3 hPa | 0 mm | - | 0 W/m² | - |
| 1777335009 | 13.89° C | 80% | 1016.4 hPa | 0 mm | - | 0 W/m² | - |
| 1777334322 | 14.44° C | 72% | 1016.4 hPa | 0 mm | - | 0 W/m² | - |
| 1777333585 | 13.89° C | 72% | 1016.5 hPa | 0 mm | - | 0 W/m² | - |
| 1777332884 | 13.89° C | 72% | 1016.6 hPa | 0 mm | - | 0 W/m² | - |
| 1777332196 | 13.89° C | 79% | 1016.7 hPa | 0.51 mm | - | 0 W/m² | - |
| 1777331510 | 13.33° C | 86% | 1016.6 hPa | 0.51 mm | - | 0 W/m² | - |
| 1777330822 | 13.33° C | 86% | 1016.6 hPa | 0.51 mm | - | 0 W/m² | - |
| 1777330085 | 13.33° C | 86% | 1016.6 hPa | 0.51 mm | - | 0 W/m² | - |
| 1777329384 | 13.89° C | 79% | 1016.7 hPa | 0.51 mm | - | 0 W/m² | - |
| 1777328696 | 13.89° C | 85% | 1016.5 hPa | 0 mm | - | 0 W/m² | - |
| 1777328009 | 15.56° C | 62% | 1016.6 hPa | 0 mm | - | 0 W/m² | - |
| 1777327320 | 15.56° C | 66% | 1016.7 hPa | 0 mm | - | 0 W/m² | - |
| 1777326584 | 16.11° C | 60% | 1016.7 hPa | 0 mm | - | 0 W/m² | - |
| 1777325883 | 15.56° C | 63% | 1016.7 hPa | 0 mm | - | 0 W/m² | - |
| 1777325195 | 15.56° C | 61% | 1016.7 hPa | 0 mm | - | 0 W/m² | - |
| 1777324508 | 15.56° C | 64% | 1016.7 hPa | 0 mm | - | 0 W/m² | - |
| 1777323821 | 15.56° C | 62% | 1016.7 hPa | 0 mm | - | 0 W/m² | - |
| 1777323084 | 16.11° C | 60% | 1016.6 hPa | 0 mm | - | 0 W/m² | - |
| 1777322383 | 17.22° C | 56% | 1016.6 hPa | 0 mm | - | 0 W/m² | - |
| 1777321695 | 17.22° C | 56% | 1016.6 hPa | 0 mm | - | 0 W/m² | - |
* Rain latest hour (hover to see other rain measurements)
** Current wind speed in m/s (hover to see current wind gust speed)